2014 Sactown 10 10 Mile Run

2014 Sactown 10

Overall Finish List

April 06, 2014


Results By Capital Road Race Management Capital Road Race Management

10 Mile Run

Place Name City Bib No Age Gender Age Group Total Time Pace
1 Shadrack Biwott Folsom CA 3 29 M 1 25-29 47:59.0 4:48/M
2 Tesfaye Alemayehu Antioch CA 1 30 M 1 30-34 48:03.0 4:48/M
3 Craig Leon Eugene OR 5 29 M 2 25-29 49:19.0 4:56/M
4 Phillip Reid San Luis Obispo CA 13 28 M 3 25-29 49:45.0 4:59/M
5 Malcolm Richards San Francisco CA 9 31 M 2 30-34 49:56.0 5:00/M
6 Brandon Birdsong Colorado Springs CO 7 26 M 4 25-29 50:45.0 5:05/M
7 Martin Hernandez Templeton CA 15 27 M 5 25-29 50:59.0 5:06/M
8 Tim Tollefson Lincoln CA 11 29 M 6 25-29 51:00.0 5:06/M
9 Jk Withers Santa Rosa CA 25 27 M 7 25-29 51:06.0 5:07/M
10 Austin Huff Arcata CA 447 24 M 1 20-24 51:14.0 5:07/M
11 Billy Mateker San Jose CA 622 26 M 8 25-29 51:20.0 5:08/M
12 Kota Reichert Palo Alto CA 29 30 M 3 30-34 51:22.0 5:08/M
13 Frank Corrigan Port Costa CA 237 29 M 9 25-29 51:26.0 5:09/M
14 Chandler Kemp Menlo Park CA 508 24 M 2 20-24 51:33.0 5:09/M
15 Alan Campos Mammoth Lakes CA 1135 26 M 10 25-29 51:39.0 5:10/M
16 Charlie Brenneman Rocklin CA 19 35 M 1 35-39 52:00.0 5:12/M
17 Steve Chu Colorado Springs CO 209 31 M 4 30-34 52:02.0 5:12/M
18 Dale Taylor Palo Alto CA 947 25 M 11 25-29 52:58.0 5:18/M
19 Ben Keck Redding CA 504 30 M 5 30-34 53:03.0 5:18/M
20 Miguel Nuci Turlock CA 31 34 M 6 30-34 53:17.0 5:20/M
21 Gordon Sturgess Paso Robles CA 1212 22 M 3 20-24 53:27.0 5:21/M
22 Leif Anderson Davis CA 23 27 M 12 25-29 53:56.0 5:24/M
23 Matthew Laye Sausalito CA 553 33 M 7 30-34 53:59.0 5:24/M
24 Patrick Reaves San Mateo CA 793 29 M 13 25-29 54:25.0 5:27/M
25 Kim Conley West Sacramento CA 2 28 F 1 25-29 54:44.0 5:28/M
26 Gary Gellin Mill Valley CA 354 45 M 1 45-49 54:54.0 5:29/M
27 Sam Yount Portola Valley CA 1045 32 M 8 30-34 54:56.0 5:30/M
28 Jane Kibii Auburn CA 4 29 F 2 25-29 55:11.0 5:31/M
29 Evan Sparling San Francisco CA 1233 27 M 14 25-29 55:17.0 5:32/M
30 Osamu Tada Sacramento CA 35 33 M 9 30-34 55:21.0 5:32/M
31 Iain Mickle Sacramento CA 648 53 M 1 50-54 55:44.0 5:34/M
32 Jose Morales King City CA 41 30 M 10 30-34 55:52.0 5:35/M
33 Daniel Dimeo Sacramento CA 270 27 M 15 25-29 55:56.0 5:36/M
34 Jason Lee San Francisco CA 1190 38 M 2 35-39 56:02.0 5:36/M
35 Todd Rose San Francisco CA 1238 40 M 1 40-44 56:05.0 5:37/M
36 Jonathan Kimura Cupertino CA 1261 33 M 11 30-34 56:10.0 5:37/M
37 Chikara Omine San Francisco CA 715 31 M 12 30-34 56:48.0 5:41/M
38 Chris Knorzer Rocklin CA 525 45 M 2 45-49 56:50.0 5:41/M
39 Harlan Lopez Walnut Creek CA 33 28 M 16 25-29 56:51.0 5:41/M
40 Michael Fadling Roseville CA 299 45 M 3 45-49 56:53.0 5:41/M
41 Steve Schenck Sacramento CA 1204 30 M 13 30-34 57:09.0 5:43/M
42 Mason Myers Carmichael CA 687 44 M 2 40-44 57:18.0 5:44/M
43 Curt Casazza Shingle Springs CA 1145 42 M 3 40-44 57:24.0 5:44/M
44 Ed Brooks Folsom CA 1158 42 M 4 40-44 57:29.0 5:45/M
45 Jair Sanchez Seaside CA 853 40 M 5 40-44 57:37.0 5:46/M
46 Michael Ohare Oakland CA 1245 40 M 6 40-44 57:39.0 5:46/M
47 Jonah Backstrom San Francisco CA 89 40 M 7 40-44 57:41.0 5:46/M
48 Charlie Johnston Sparks NV 481 31 M 14 30-34 57:42.0 5:46/M
49 Jenny Kadavy Concord CA 16 31 F 1 30-34 57:44.0 5:46/M
50 Edward Randolph San Francisco CA 790 44 M 8 40-44 57:53.0 5:47/M
51 Marcelo Lerda Lincoln CA 564 42 M 9 40-44 57:58.0 5:48/M
52 Tori Tyler Danville CA 12 26 F 3 25-29 57:59.0 5:48/M
53 Rob Scheffler Alamo CA 1240 27 M 17 25-29 58:01.0 5:48/M
54 Jenna Boren Denucci Menlo Park CA 8 37 F 1 35-39 58:06.0 5:49/M
55 Richard Bolt Mountain View CA 1225 43 M 10 40-44 58:09.0 5:49/M
56 Rob Elia Moraga CA 1221 50 M 2 50-54 58:11.0 5:49/M
57 Gary Blanco Sacramento CA 1203 46 M 4 45-49 58:23.0 5:50/M
58 David Braund Cottonwood CA 1199 35 M 3 35-39 58:28.0 5:51/M
59 Chafik Azerki Alameda CA 87 40 M 11 40-44 58:31.0 5:51/M
60 Max Pedrotti Fair Oaks CA 1167 18 M 1 1-19 58:32.0 5:51/M
61 Will Allan Martinez CA 1227 39 M 4 35-39 58:32.0 5:51/M
62 Mike Styczynski Sacramento CA 935 31 M 15 30-34 58:34.0 5:51/M
63 Andy Kadavy Concord CA 494 30 M 16 30-34 58:35.0 5:52/M
64 Jorn Jensen Morgan Hill CA 474 45 M 5 45-49 58:44.0 5:52/M
65 Brendan Ward Davis CA 1223 25 M 18 25-29 58:46.0 5:53/M
66 Ivan Lieben San Francisco CA 1219 44 M 12 40-44 58:52.0 5:53/M
67 Jesse Santana Riverbank CA 854 42 M 13 40-44 58:53.0 5:53/M
68 Lindsay Tollefson Lincoln CA 10 28 F 4 25-29 58:53.0 5:53/M
69 Kyle Dunn Berkeley CA 1254 26 M 19 25-29 58:54.0 5:53/M
70 Karim Bey San Francisco CA 1079 51 M 3 50-54 58:55.0 5:54/M
71 Liza Hitchner Palo Alto CA 28 26 F 5 25-29 58:56.0 5:54/M
72 Marc Flores Roseville CA 610 41 M 14 40-44 59:03.0 5:54/M
73 John Markell San Francisco CA 611 40 M 15 40-44 59:07.0 5:55/M
74 Tim Keenan Walnut Creek CA 505 52 M 4 50-54 59:08.0 5:55/M
75 Patrick Marjolet San Francisco CA 1222 37 M 5 35-39 59:12.0 5:55/M
76 Matt Bachman Sacramento CA 88 40 M 16 40-44 59:21.0 5:56/M
77 Daniel Kinsella Sacramento CA 37 33 M 17 30-34 59:24.0 5:56/M
78 Cliff Lentz Brisbane CA 1231 48 M 6 45-49 59:30.0 5:57/M
79 Dan Rhodes Half Moon Bay CA 806 42 M 17 40-44 59:35.0 5:58/M
80 Raymond Rodriguez Los Banos CA 821 52 M 5 50-54 59:39.0 5:58/M
81 Cody Lemons Sacramento CA 559 28 M 20 25-29 59:40.0 5:58/M
82 Mark McDermott San Rafael CA 629 36 M 6 35-39 59:41.0 5:58/M
83 Tucker Hoffman Redding CA 433 19 M 2 1-19 59:44.0 5:58/M
84 Thomas Sweeney San Francisco CA 942 37 M 7 35-39 59:50.0 5:59/M
85 Matt Herzog San Francisco CA 427 30 M 18 30-34 59:57.0 6:00/M
86 Bill Reed Reno NV 795 52 M 6 50-54 59:59.0 6:00/M
87 Barry Farrara Aromas CA 301 51 M 7 50-54 1:00:01.0 6:00/M
88 Jeff Hongo Campbell CA 437 48 M 7 45-49 1:00:11.0 6:01/M
89 Denis Glenn Sausalito CA 359 44 M 18 40-44 1:00:32.0 6:03/M
90 Mike Axinn San Francisco CA 86 54 M 8 50-54 1:00:34.0 6:03/M
91 Michael Shubert Rancho Cordova CA 882 43 M 19 40-44 1:00:39.0 6:04/M
92 Erik Aguilar Sacramento CA 53 33 M 19 30-34 1:00:45.0 6:05/M
93 Molly Friel Fresno CA 32 46 F 1 45-49 1:00:45.0 6:05/M
94 Adam Lundy Davis CA 595 43 M 20 40-44 1:00:59.0 6:06/M
95 Michelle Meyer San Francisco CA 24 26 F 6 25-29 1:00:59.0 6:06/M
96 Adam Lucas San Francisco CA 590 47 M 8 45-49 1:01:02.0 6:06/M
97 Michael Woodward Rocklin CA 1030 47 M 9 45-49 1:01:26.0 6:09/M
98 Michele Palmer San Francisco CA 20 32 F 2 30-34 1:01:29.0 6:09/M
99 John Constas Danville CA 1239 28 M 21 25-29 1:01:43.0 6:10/M
100 Maggie Conley Portola Valley CA 226 30 F 3 30-34 1:01:49.0 6:11/M
 
Place Name City Bib No Age Gender Age Group Total Time Pace
101 David Kaffka Citrus Heights CA 495 41 M 21 40-44 1:01:54.0 6:11/M
102 Albert Hwang Sacramento CA 458 34 M 20 30-34 1:02:02.0 6:12/M
103 Beth Zinkand Michel Davis CA 1051 44 F 1 40-44 1:02:11.0 6:13/M
104 Mark Hostetter San Jose CA 442 41 M 22 40-44 1:02:15.0 6:14/M
105 Thomas Parker Mill Valley CA 736 34 M 21 30-34 1:02:15.0 6:14/M
106 Daniel Weintraub Sacramento CA 1004 53 M 9 50-54 1:02:19.0 6:14/M
107 Andrew Apfelbaum San Francisco CA 73 50 M 10 50-54 1:02:33.0 6:15/M
108 Betsy Russakoff San Francisco CA 838 39 F 2 35-39 1:02:34.0 6:15/M
109 Ronald Hess Fair Oaks CA 429 52 M 11 50-54 1:02:35.0 6:16/M
110 Bryan Hacker Auburn CA 388 50 M 12 50-54 1:02:36.0 6:16/M
111 Raul Beltran Rancho Cordova CA 1067 32 M 22 30-34 1:02:47.0 6:17/M
112 Brian Davis Livermore CA 257 58 M 1 55-59 1:02:49.0 6:17/M
113 Jeremy Bennett Loomis CA 1069 39 M 8 35-39 1:02:57.0 6:18/M
114 Kristen Soloway Davis CA 903 39 F 3 35-39 1:03:06.0 6:19/M
115 Tanya Ferreira Watsonville CA 310 25 F 7 25-29 1:03:16.0 6:20/M
116 Felice Kelly Menlo Park CA 1215 33 F 4 30-34 1:03:27.0 6:21/M
117 Juan Rivera Salinas CA 809 33 M 23 30-34 1:03:33.0 6:21/M
118 Matthew Herald Reno NV 422 31 M 24 30-34 1:03:36.0 6:22/M
119 Thomas Cushman Chico CA 253 60 M 1 60-64 1:03:39.0 6:22/M
120 Galen Farris Sacramento CA 304 32 M 25 30-34 1:03:48.0 6:23/M
121 Jenny Hitchings Sacramento CA 431 50 F 1 50-54 1:03:49.0 6:23/M
122 Brendan Scanlon Chico CA 1226 25 M 22 25-29 1:03:51.0 6:23/M
123 David Bayliss Danville CA 1057 47 M 10 45-49 1:03:59.0 6:24/M
124 Jaymee Marty Sacramento CA 26 46 F 2 45-49 1:04:01.0 6:24/M
125 Rick Soper Oakland CA 904 53 M 13 50-54 1:04:11.0 6:25/M
126 Ernie Felix Sacramento CA 308 48 M 11 45-49 1:04:20.0 6:26/M
127 Thomas Jensen San Francisco CA 1216 41 M 23 40-44 1:04:29.0 6:27/M
128 Anne Ruminski El Cerrito CA 1253 32 F 5 30-34 1:04:39.0 6:28/M
129 Felipe Vargas Seaside CA 987 29 M 23 25-29 1:04:50.0 6:29/M
130 Liz Gottlieb San Rafael CA 1259 38 F 4 35-39 1:04:50.0 6:29/M
131 Bill Salacuse Pleasant Hill CA 847 46 M 12 45-49 1:04:54.0 6:29/M
132 Lauren Jerd Berkeley CA 475 28 F 8 25-29 1:04:55.0 6:30/M
133 Jason Grimm Sacramento CA 380 39 M 9 35-39 1:04:57.0 6:30/M
134 Madeline Kiesel San Francisco CA 1258 27 F 9 25-29 1:05:05.0 6:31/M
135 Ken Camet San Jose CA 1129 52 M 14 50-54 1:05:06.0 6:31/M
136 Courtney Green Folsom CA 34 27 F 10 25-29 1:05:06.0 6:31/M
137 Katherine Ross Lincoln CA 38 27 F 11 25-29 1:05:07.0 6:31/M
138 Jerry Flanagan San Francisco CA 318 48 M 13 45-49 1:05:11.0 6:31/M
139 Ulises Fernandez Seaside CA 309 49 M 14 45-49 1:05:40.0 6:34/M
140 Michael Gutterman Sacramento CA 385 37 M 10 35-39 1:05:47.0 6:35/M
141 Brent Daniel San Francisco CA 1246 43 M 24 40-44 1:05:56.0 6:36/M
142 Christopher Lee San Francisco CA 1214 31 M 26 30-34 1:05:57.0 6:36/M
143 Lisa Renteria San Jose CA 802 35 F 5 35-39 1:06:08.0 6:37/M
144 Corinne Roberts San Francisco CA 813 28 F 12 25-29 1:06:20.0 6:38/M
145 Jeff Teeters Berkeley CA 950 54 M 15 50-54 1:06:25.0 6:39/M
146 Marc Bacsafra Sacramento CA 1176 38 M 11 35-39 1:06:33.0 6:39/M
147 John Hirschberger San Francisco CA 430 62 M 2 60-64 1:06:33.0 6:39/M
148 Claire Saxton Santa Clara CA 859 36 F 6 35-39 1:06:38.0 6:40/M
149 Daniel Shore Mill Valley CA 1209 45 M 15 45-49 1:06:40.0 6:40/M
150 Leah Cowdrey San Francisco CA 240 28 F 13 25-29 1:06:54.0 6:41/M
151 Kirt Iverson Santa Clara CA 465 44 M 25 40-44 1:07:01.0 6:42/M
152 Emily Joller Folsom CA 36 31 F 6 30-34 1:07:06.0 6:43/M
153 Eric Gullikson Oakland CA 1201 58 M 2 55-59 1:07:09.0 6:43/M
154 Lauren Sonderegger San Francisco CA 1205 27 F 14 25-29 1:07:15.0 6:44/M
155 Roberto Z Donaire San Pablo CA 1194 60 M 3 60-64 1:07:19.0 6:44/M
156 Bill Mumma Sacramento CA 1168 55 M 3 55-59 1:07:22.0 6:44/M
157 Garth Utter Sacramento CA 977 43 M 26 40-44 1:07:25.0 6:45/M
158 George Lo Santa Clara CA 576 44 M 27 40-44 1:07:26.0 6:45/M
159 Jonathan Eandi Sacramento CA 288 38 M 12 35-39 1:07:31.0 6:45/M
160 Bob Paredes San Jose CA 733 57 M 4 55-59 1:07:55.0 6:48/M
161 Monica Zhuang San Francisco CA 1249 40 F 2 40-44 1:07:56.0 6:48/M
162 Dino Delyani San Mateo CA 262 56 M 5 55-59 1:08:02.0 6:48/M
163 John Gieng San Francisco CA 1213 35 M 13 35-39 1:08:05.0 6:49/M
164 Jason Reed San Bruno CA 1266 35 M 14 35-39 1:08:08.0 6:49/M
165 Erynne Jones Sacramento CA 483 28 F 15 25-29 1:08:10.0 6:49/M
166 Steve Ashe Sacramento CA 83 54 M 16 50-54 1:08:22.0 6:50/M
167 Andrew Green Campbell CA 1228 46 M 16 45-49 1:08:26.0 6:51/M
168 Steve Cryer Rohnert Park CA 250 62 M 4 60-64 1:08:33.0 6:51/M
169 Ali Klikna Turlock CA 1234 36 F 7 35-39 1:08:36.0 6:52/M
170 Janelle Ralph Gold Hill OR 784 32 F 7 30-34 1:08:37.0 6:52/M
171 Alan Dehlinger Reno NV 259 53 M 17 50-54 1:08:51.0 6:53/M
172 Kidianga Tshiunza Sacramento CA 972 44 M 28 40-44 1:08:55.0 6:54/M
173 Clint Stevens Calistoga CA 925 40 M 29 40-44 1:08:56.0 6:54/M
174 David Pai Sacramento CA 726 41 M 30 40-44 1:08:57.0 6:54/M
175 Carolyn Menard Sacramento CA 646 28 F 16 25-29 1:08:59.0 6:54/M
176 Katie Myszka Vacaville CA 1206 29 F 17 25-29 1:09:11.0 6:55/M
177 Jimmy Pippin Dublin CA 761 46 M 17 45-49 1:09:13.0 6:55/M
178 Jim Eckford Oakland CA 1210 58 M 6 55-59 1:09:15.0 6:56/M
179 Nicholas Herald Benicia CA 423 33 M 27 30-34 1:09:23.0 6:56/M
180 Ron Souza Citrus Heights CA 906 60 M 5 60-64 1:09:33.0 6:57/M
181 Dennis Early Loomis CA 289 57 M 7 55-59 1:09:34.0 6:57/M
182 Ashley Chavez Brentwood CA 205 24 F 1 20-24 1:09:39.0 6:58/M
183 Ryan Lillis Sacramento CA 569 37 M 15 35-39 1:09:47.0 6:59/M
184 Melissa Haahr Campbell CA 386 24 F 2 20-24 1:09:50.0 6:59/M
185 Cinthya Vielma San Jose CA 991 47 F 3 45-49 1:09:57.0 7:00/M
186 Richard Powers Wilton CA 773 61 M 6 60-64 1:09:59.0 7:00/M
187 Louise Stephens San Francisco CA 923 48 F 4 45-49 1:10:04.0 7:00/M
188 Robert Speck Lafayette CA 908 59 M 8 55-59 1:10:09.0 7:01/M
189 John Borsos Sacramento CA 1095 50 M 18 50-54 1:10:12.0 7:01/M
190 Michael Dove Salinas CA 283 67 M 1 65-69 1:10:15.0 7:02/M
191 Chuck Sickman Granite Bay CA 883 53 M 19 50-54 1:10:16.0 7:02/M
192 Steven Speak Roseville CA 907 45 M 18 45-49 1:10:21.0 7:02/M
193 Karen Jeffers Wheatland CA 470 51 F 2 50-54 1:10:26.0 7:03/M
194 Bill Neer Novato CA 690 55 M 9 55-59 1:10:32.0 7:03/M
195 Bryan Dove Sacramento CA 1160 39 M 16 35-39 1:10:39.0 7:04/M
196 Todd Watkins Sacramento CA 999 50 M 20 50-54 1:10:39.0 7:04/M
197 Deb Templeton Carmichael CA 954 41 F 3 40-44 1:10:51.0 7:05/M
198 Krystal Buck Campbell CA 1207 25 F 18 25-29 1:10:57.0 7:06/M
199 Suzanne Ray Jacksonville OR 791 61 F 1 60-64 1:11:24.0 7:08/M
200 Susan Armenta San Jose CA 1208 40 F 4 40-44 1:11:24.0 7:08/M
 
Place Name City Bib No Age Gender Age Group Total Time Pace
201 Sam Savinovich Sacramento CA 858 50 M 21 50-54 1:11:35.0 7:10/M
202 Hunter Gallacher Monterey CA 1235 32 M 28 30-34 1:11:49.0 7:11/M
203 Scott Sutch Carmichael -- 939 42 M 31 40-44 1:11:58.0 7:12/M
204 Honor Fetherston Los Gatos CA 311 59 F 1 55-59 1:12:15.0 7:14/M
205 Di Wu Davis CA 1033 30 M 29 30-34 1:12:18.0 7:14/M
206 Thomas Lockhart Salinas CA 577 52 M 22 50-54 1:12:20.0 7:14/M
207 Tony Scardina San Jose CA 1198 49 M 19 45-49 1:12:24.0 7:14/M
208 Jorge Lopez Vazquez Marina CA 583 43 M 32 40-44 1:12:28.0 7:15/M
209 Russell Shaw El Dorado Hills CA 877 40 M 33 40-44 1:12:34.0 7:15/M
210 Jaclyn Strife San Francisco CA 930 31 F 8 30-34 1:12:36.0 7:16/M
211 George Goerzen Lodi CA 361 34 M 30 30-34 1:12:49.0 7:17/M
212 Jean-Pierre Delplanque Davis CA 261 50 M 23 50-54 1:12:49.0 7:17/M
213 Patrick Rose Woodland CA 1237 43 M 34 40-44 1:12:56.0 7:18/M
214 Sherry Lee Cupertino CA 1260 32 F 9 30-34 1:12:56.0 7:18/M
215 Christy Bonstelle San Francisco CA 1211 42 F 5 40-44 1:13:00.0 7:18/M
216 Inga Gunther Folsom CA 381 33 F 10 30-34 1:13:09.0 7:19/M
217 Tim Ernst Walnut Creek CA 1218 54 M 24 50-54 1:13:10.0 7:19/M
218 Beverly Witherspoon Sacramento CA 1022 54 F 3 50-54 1:13:12.0 7:19/M
219 Janelle Young Sacramento CA 1043 54 F 4 50-54 1:13:12.0 7:19/M
220 Cristina Ramirez Davis CA 786 27 F 19 25-29 1:13:19.0 7:20/M
221 Rafeal Garcia Zacalco JA 1189 21 M 4 20-24 1:13:38.0 7:22/M
222 Carl MacLean Vacaville CA 1232 17 M 3 1-19 1:13:40.0 7:22/M
223 Sharlet Gilbert El Sobrante CA 1220 63 F 2 60-64 1:13:43.0 7:22/M
224 Terry Anderson Folsom CA 67 40 F 6 40-44 1:13:46.0 7:23/M
225 Ashley Rader Rancho Cordova CA 783 28 F 20 25-29 1:13:46.0 7:23/M
226 Janet Smith San Jose CA 897 53 F 5 50-54 1:13:47.0 7:23/M
227 Douglas Patton Sacramento CA 741 55 M 10 55-59 1:14:04.0 7:24/M
228 Weston Koberstein Sacramento CA 527 37 M 17 35-39 1:14:10.0 7:25/M
229 Riya Young Palo Alto CA 1044 46 F 5 45-49 1:14:11.0 7:25/M
230 Mike Rizzotti Lodi CA 810 37 M 18 35-39 1:14:19.0 7:26/M
231 Kevin Cimini Fair Oaks CA 210 53 M 25 50-54 1:14:23.0 7:26/M
232 Bill Goodwin Sacramento CA 369 60 M 7 60-64 1:14:24.0 7:26/M
233 Genevieve Clavier Sacramento -- 213 50 F 6 50-54 1:14:26.0 7:27/M
234 John Howard Sacramento CA 444 55 M 11 55-59 1:14:27.0 7:27/M
235 Hans Schmid Greenbrae CA 864 74 M 1 70-74 1:14:29.0 7:27/M
236 Joe Sterling Sacramento CA 924 52 M 26 50-54 1:14:35.0 7:28/M
237 Phil Clevenger Sloughhouse CA 216 58 M 12 55-59 1:14:41.0 7:28/M
238 Matthew Taylor Rancho Cordova CA 948 28 M 24 25-29 1:14:48.0 7:29/M
239 Adrien Contreras Sacramento CA 227 31 M 31 30-34 1:14:51.0 7:29/M
240 Kaci Heberlein Orangevale CA 415 34 F 11 30-34 1:14:52.0 7:29/M
241 Scott Campbell Rancho Cordova CA 1134 48 M 20 45-49 1:14:54.0 7:29/M
242 Samuel Copley El Dorado Hills CA 232 13 M 4 1-19 1:14:55.0 7:30/M
243 Bip Kaushal Roseville CA 502 42 M 35 40-44 1:15:03.0 7:30/M
244 Steve O'Donnell Folsom CA 707 36 M 19 35-39 1:15:10.0 7:31/M
245 David Bienick Sacramento CA 1080 44 M 36 40-44 1:15:22.0 7:32/M
246 Barry Turner Sacramento CA 973 61 M 8 60-64 1:15:24.0 7:32/M
247 Eric Holtrop Grass Valley CA 436 45 M 21 45-49 1:15:25.0 7:33/M
248 Robert Horan Fairfield CA 440 51 M 27 50-54 1:15:29.0 7:33/M
249 Angela Longworth Hercules CA 581 46 F 6 45-49 1:15:33.0 7:33/M
250 Danielle Hashem San Francisco CA 412 43 F 7 40-44 1:15:38.0 7:34/M
251 Silas Bauer Sacramento -- 1054 39 M 20 35-39 1:15:39.0 7:34/M
252 Erika Kikuchi Redwood City CA 517 35 F 8 35-39 1:15:41.0 7:34/M
253 Andrew Bogde Citrus Heights CA 1092 25 M 25 25-29 1:15:45.0 7:35/M
254 Ward Brady Sacramento CA 1101 36 M 21 35-39 1:15:51.0 7:35/M
255 Jack Patton Sacramento CA 742 15 M 5 1-19 1:15:56.0 7:36/M
256 Lindsey McKown Woodland CA 634 26 F 21 25-29 1:15:57.0 7:36/M
257 Hamady Balde Gridley CA 95 33 M 32 30-34 1:16:02.0 7:36/M
258 Caroline Temmins Menlo Park CA 951 40 F 8 40-44 1:16:09.0 7:37/M
259 Jennifer Panson Sacramento CA 731 45 F 7 45-49 1:16:11.0 7:37/M
260 Jeffrey Callison Lincoln CA 1124 52 M 28 50-54 1:16:34.0 7:39/M
261 Michael Osorio Sacramento CA 720 36 M 22 35-39 1:16:37.0 7:40/M
262 Peter Davis Folsom CA 258 54 M 29 50-54 1:16:38.0 7:40/M
263 Ed Crouse Folsom CA 249 59 M 13 55-59 1:16:42.0 7:40/M
264 Jim Picard Marysville CA 759 59 M 14 55-59 1:16:51.0 7:41/M
265 Jennifer Shaw El Dorado Hills CA 876 40 F 9 40-44 1:16:51.0 7:41/M
266 Maria Briones Oakland CA 1104 58 F 2 55-59 1:16:56.0 7:42/M
267 Robert Becerril West Sacramento CA 1059 43 M 37 40-44 1:17:05.0 7:43/M
268 Nga Do San Francisco CA 274 39 F 9 35-39 1:17:07.0 7:43/M
269 Ismael MacIas Sacramento CA 600 47 M 22 45-49 1:17:11.0 7:43/M
270 Suzette Smith Alameda CA 901 58 F 3 55-59 1:17:24.0 7:44/M
271 Luis Lavagnino San Francisco CA 552 62 M 9 60-64 1:17:33.0 7:45/M
272 Bill Carpenter Oakland CA 1140 54 M 30 50-54 1:17:40.0 7:46/M
273 John Norris Folsom CA 1197 55 M 15 55-59 1:17:49.0 7:47/M
274 Adam Kraft El Dorado Hills CA 535 31 M 33 30-34 1:18:00.0 7:48/M
275 Diann Leo San Francisco CA 562 26 F 22 25-29 1:18:02.0 7:48/M
276 Maria De Lourde Jimenez-Price Sacramento CA 476 41 F 10 40-44 1:18:04.0 7:48/M
277 Carmen Briones San Leandro CA 1103 62 F 3 60-64 1:18:07.0 7:49/M
278 Patricia Chao El Dorado Hills CA 204 37 F 10 35-39 1:18:08.0 7:49/M
279 Matthew Campbell Sacramento CA 1133 52 M 31 50-54 1:18:11.0 7:49/M
280 Cynthia Bosco Sacramento CA 1096 50 F 7 50-54 1:18:12.0 7:49/M
281 Amy Lapin Sacramento CA 549 39 F 11 35-39 1:18:14.0 7:49/M
282 Kimberly Beltran Elk Grove CA 1066 35 F 12 35-39 1:18:15.0 7:50/M
283 Jenny Wong Sacramento CA 1028 59 F 4 55-59 1:18:21.0 7:50/M
284 Sally Monical Rescue CA 661 57 F 5 55-59 1:18:28.0 7:51/M
285 Tara Cucullu Clovis CA 251 35 F 13 35-39 1:18:31.0 7:51/M
286 Jim Peterson Sacramento CA 754 57 M 16 55-59 1:18:31.0 7:51/M
287 Jared Frantzich Sacramento CA 328 30 M 34 30-34 1:18:33.0 7:51/M
288 Erich Kopple Elk Grove CA 534 45 M 23 45-49 1:18:39.0 7:52/M
289 Rena Lantz Gold River CA 548 52 F 8 50-54 1:18:41.0 7:52/M
290 Ohnmar Shin Carmichael -- 878 41 F 11 40-44 1:18:46.0 7:53/M
291 Andy Ramos Santa Rosa CA 789 47 M 24 45-49 1:18:46.0 7:53/M
292 Daniel Trassare Jackson CA 966 34 M 35 30-34 1:18:48.0 7:53/M
293 Chelsea Camous Folsom CA 1130 24 F 3 20-24 1:18:56.0 7:54/M
294 Carrie Relles Sacramento CA 801 37 F 14 35-39 1:18:57.0 7:54/M
295 Patrice Horan Fairfield CA 439 53 F 9 50-54 1:18:57.0 7:54/M
296 Sam Mason Lakeport CA 620 58 M 17 55-59 1:18:58.0 7:54/M
297 Greg Bitner Carmichael CA 1084 42 M 38 40-44 1:19:00.0 7:54/M
298 Robert Gormley Moraga CA 371 72 M 2 70-74 1:19:10.0 7:55/M
299 Melisa Bittancourt Roseville CA 1085 35 F 15 35-39 1:19:12.0 7:55/M
300 James Labanowski Roseville CA 538 44 M 39 40-44 1:19:12.0 7:55/M
 
Place Name City Bib No Age Gender Age Group Total Time Pace
301 Richard Mallett Tahoe City CA 607 64 M 10 60-64 1:19:15.0 7:56/M
302 Linda Frazier Placerville CA 331 55 F 6 55-59 1:19:26.0 7:57/M
303 Mark Finley Sacramento CA 313 41 M 40 40-44 1:19:29.0 7:57/M
304 Andrew Carr Sacramento CA 1142 31 M 36 30-34 1:19:37.0 7:58/M
305 Michael McKay Citrus Heights CA 632 30 M 37 30-34 1:19:51.0 7:59/M
306 David Dill Yuba City CA 269 35 M 23 35-39 1:19:52.0 7:59/M
307 Jim Flanigan Davis CA 319 64 M 11 60-64 1:19:52.0 7:59/M
308 Jennifer Williams Sacramento CA 1159 47 F 8 45-49 1:19:55.0 8:00/M
309 Tom Kielty Folsom CA 515 52 M 32 50-54 1:19:58.0 8:00/M
310 James Rowland Concord CA 832 60 M 12 60-64 1:20:02.0 8:00/M
311 Andrew Zaragoza Folsom CA 1048 38 M 24 35-39 1:20:11.0 8:01/M
312 Erick Dixon Yuba City CA 273 30 M 38 30-34 1:20:13.0 8:01/M
313 Lance Kolleda Folsom CA 528 48 M 25 45-49 1:20:23.0 8:02/M
314 Geoffrey Palenik San Marino CA 728 43 F 12 40-44 1:20:28.0 8:03/M
315 Patrick Miller Roseville CA 652 36 M 25 35-39 1:20:30.0 8:03/M
316 Mary Bryan Greenbrae CA 1242 53 F 10 50-54 1:20:41.0 8:04/M
317 Joseph Rodriguez Sacramento CA 819 45 M 26 45-49 1:20:45.0 8:05/M
318 Laura Meadors San Francisco CA 638 36 F 16 35-39 1:20:50.0 8:05/M
319 Chris Robert Sloughhouse CA 812 35 M 26 35-39 1:21:07.0 8:07/M
320 Soledad Sanchez Sacramento CA 1177 32 F 12 30-34 1:21:13.0 8:07/M
321 Gina Unciano Santa Rosa CA 976 39 F 17 35-39 1:21:24.0 8:08/M
322 John McLaughlin Windsor CA 635 50 M 33 50-54 1:21:27.0 8:09/M
323 Tim Crick Sacramento CA 244 45 M 27 45-49 1:21:33.0 8:09/M
324 Justin Record Grass Valley CA 794 34 M 39 30-34 1:21:37.0 8:10/M
325 Meredith Bock San Francisco CA 1090 26 F 23 25-29 1:21:48.0 8:11/M
326 Nathan Thomas Sparks NV 957 46 M 28 45-49 1:21:50.0 8:11/M
327 Michele Downs Folsom CA 285 52 F 11 50-54 1:22:02.0 8:12/M
328 Elizabeth Levin Elk Grove CA 566 49 F 9 45-49 1:22:08.0 8:13/M
329 Shelley Sumner San Jose CA 937 59 F 7 55-59 1:22:17.0 8:14/M
330 Douglas Yee Sacramento CA 1039 57 M 18 55-59 1:22:23.0 8:14/M
331 Wayne Burnett Elverta CA 1118 60 M 13 60-64 1:22:27.0 8:15/M
332 Tommy Huffman Sacramento CA 1255 44 M 41 40-44 1:22:34.0 8:15/M
333 Haley Gonzales Sacramento CA 366 29 F 24 25-29 1:22:40.0 8:16/M
334 Kv Saechao Sacramento CA 842 34 M 40 30-34 1:22:42.0 8:16/M
335 Kellie Schneider Sacramento CA 867 36 F 18 35-39 1:22:43.0 8:16/M
336 Jennifer Wade Sacramento CA 992 33 F 13 30-34 1:22:45.0 8:17/M
337 Jason Rose Fair Oaks CA 827 38 M 27 35-39 1:22:46.0 8:17/M
338 Ty Nickel San Francisco CA 696 44 M 42 40-44 1:22:49.0 8:17/M
339 Whitney Allen Citrus Heights CA 60 27 F 25 25-29 1:22:50.0 8:17/M
340 Glenn Kishi San Jose CA 522 52 M 34 50-54 1:22:52.0 8:17/M
341 Eric Luchini Sacramento CA 593 52 M 35 50-54 1:22:58.0 8:18/M
342 Miguel G Gomez El Segundo CA 364 32 M 41 30-34 1:23:01.0 8:18/M
343 Julie Bauer Sacramento CA 100 35 F 19 35-39 1:23:05.0 8:19/M
344 Kelly Harrington Rancho Cordova CA 1186 36 F 20 35-39 1:23:06.0 8:19/M
345 Joshua McGinnis Sacramento CA 630 29 M 26 25-29 1:23:07.0 8:19/M
346 Jason Lowe Sacramento CA 586 35 M 28 35-39 1:23:19.0 8:20/M
347 Rebecca MacBride Sacramento CA 599 36 F 21 35-39 1:23:24.0 8:20/M
348 Dalila Rodriguez Los Banos CA 818 43 F 13 40-44 1:23:26.0 8:21/M
349 Teresa Quan Menlo Park CA 778 52 F 12 50-54 1:23:28.0 8:21/M
350 Michael Erikson Roseville CA 1224 31 M 42 30-34 1:23:30.0 8:21/M
351 Paul Wilson Walnut Grove CA 1020 28 M 27 25-29 1:23:56.0 8:24/M
352 Melissa Bauman Granite Bay CA 1056 34 F 14 30-34 1:23:57.0 8:24/M
353 Monica Camous Folsom CA 1131 49 F 10 45-49 1:24:11.0 8:25/M
354 Joe Hurtado Sunnyvale CA 457 73 M 3 70-74 1:24:14.0 8:25/M
355 Erik Boman Rancho Cordova CA 1200 36 M 29 35-39 1:24:17.0 8:26/M
356 Bill Dodson Mountain View CA 276 79 M 1 75-79 1:24:18.0 8:26/M
357 James O'Gara Sacramento CA 709 54 M 36 50-54 1:24:18.0 8:26/M
358 Ralph Venturino Sacramento CA 1185 51 M 37 50-54 1:24:19.0 8:26/M
359 Anthony Downs Atlanta GA 284 27 M 28 25-29 1:24:22.0 8:26/M
360 Thomas Egan Sunnyvale CA 291 39 M 30 35-39 1:24:27.0 8:27/M
361 Jessica Windham Mather CA 1021 31 F 15 30-34 1:24:29.0 8:27/M
362 Steven Nguyen Santa Ana CA 1192 55 M 19 55-59 1:24:36.0 8:28/M
363 Keith Ketcher Sacramento CA 511 44 M 43 40-44 1:24:37.0 8:28/M
364 Bob Nelson Carmichael CA 1230 44 M 44 40-44 1:24:45.0 8:29/M
365 Melissa Copley El Dorado Hills CA 231 41 F 14 40-44 1:24:48.0 8:29/M
366 Stephanie Ganiban Sacramento CA 342 31 F 16 30-34 1:24:53.0 8:29/M
367 Carol Dineen San Francisco CA 272 62 F 4 60-64 1:24:57.0 8:30/M
368 Jeff Smith Lakewood CA 898 52 M 38 50-54 1:25:16.0 8:32/M
369 Amanda Ruddy Reno NV 836 49 F 11 45-49 1:25:19.0 8:32/M
370 Wayne Posh Sacramento CA 769 28 M 29 25-29 1:25:23.0 8:32/M
371 Enry Monroy Antelope CA 662 39 F 22 35-39 1:25:25.0 8:33/M
372 Marie Arcidiacono Pittsburg CA 78 27 F 26 25-29 1:25:30.0 8:33/M
373 Avril Harcourt South Lake Tahoe CA 399 55 F 8 55-59 1:25:34.0 8:33/M
374 Arnold Utterback Sacramento CA 978 67 M 2 65-69 1:25:36.0 8:34/M
375 Miranda Fisher Shingle Springs CA 316 33 F 17 30-34 1:25:42.0 8:34/M
376 Liz Colley El Dorado Hills CA 222 31 F 18 30-34 1:25:48.0 8:35/M
377 Tom Corio Vacaville CA 236 57 M 20 55-59 1:25:56.0 8:36/M
378 Maggie Fillmore San Anselmo CA 312 63 F 5 60-64 1:26:01.0 8:36/M
379 Tom Adamson Sacramento CA 1154 75 M 2 75-79 1:26:03.0 8:36/M
380 Manuel Garcia Sacramento CA 345 51 M 39 50-54 1:26:05.0 8:37/M
381 Greg Wilson Sacramento CA 1017 47 M 29 45-49 1:26:09.0 8:37/M
382 Amy Thoma Sacramento CA 956 31 F 19 30-34 1:26:13.0 8:37/M
383 Chris Quinonez Boise ID 779 24 M 5 20-24 1:26:14.0 8:37/M
384 Matthew Gadd Folsom CA 338 42 M 45 40-44 1:26:27.0 8:39/M
385 Roberta Gonzalez Sacramento CA 368 29 F 27 25-29 1:26:30.0 8:39/M
386 Patrick Colbert Antelope CA 221 49 M 30 45-49 1:26:34.0 8:39/M
387 Allison Shaffer Davis CA 875 53 F 13 50-54 1:26:42.0 8:40/M
388 Jennifer Harwood Sacramento CA 411 43 F 15 40-44 1:26:47.0 8:41/M
389 Greg Moore San Clemente CA 669 51 M 40 50-54 1:26:50.0 8:41/M
390 John Caselli Sacramento CA 1146 61 M 14 60-64 1:26:52.0 8:41/M
391 Alexis Fitzpatrick Folsom CA 1268 32 F 20 30-34 1:26:53.0 8:41/M
392 Michael Jurczak Berkeley CA 492 27 M 30 25-29 1:26:55.0 8:42/M
393 Todd Ison Rancho Murieta CA 464 67 M 3 65-69 1:27:00.0 8:42/M
394 Lacey Mains Folsom CA 605 23 F 4 20-24 1:27:04.0 8:42/M
395 Jo Anne Rowland Concord CA 833 66 F 1 65-69 1:27:07.0 8:43/M
396 Robin Kelly Sacramento CA 507 33 F 21 30-34 1:27:17.0 8:44/M
397 Richard Alexander San Diego CA 57 59 M 21 55-59 1:27:21.0 8:44/M
398 Debby Bedwell Granite Bay CA 1063 61 F 6 60-64 1:27:25.0 8:45/M
399 Joachim Limburg Los Gatos CA 572 53 M 41 50-54 1:27:25.0 8:45/M
400 Anthony Herrera Sacramento CA 426 56 M 22 55-59 1:27:29.0 8:45/M
 
Place Name City Bib No Age Gender Age Group Total Time Pace
401 Scott White Sacramento CA 1009 41 M 46 40-44 1:27:35.0 8:46/M
402 Muhammad Meatchem Sacramento CA 639 43 M 47 40-44 1:27:37.0 8:46/M
403 Laurel Collins Berkeley CA 224 62 F 7 60-64 1:27:41.0 8:46/M
404 Kathy Murray Sacramento CA 686 34 F 22 30-34 1:27:43.0 8:46/M
405 Joanne Whitworth Folsom CA 1010 41 F 16 40-44 1:27:46.0 8:47/M
406 Kirk Buckhalter Elk Grove CA 1110 45 M 31 45-49 1:27:59.0 8:48/M
407 Bradley Williams Santa Rosa CA 1014 56 M 23 55-59 1:28:06.0 8:49/M
408 David Brown Folsom CA 1107 55 M 24 55-59 1:28:12.0 8:49/M
409 Jen Wuest Antioch CA 1034 37 F 23 35-39 1:28:14.0 8:49/M
410 Rachael Camacho Sacramento CA 1128 28 F 28 25-29 1:28:15.0 8:50/M
411 John Grayson Johnson Sacramento CA 478 56 M 25 55-59 1:28:21.0 8:50/M
412 Diana Farris Colfax CA 303 27 F 29 25-29 1:28:32.0 8:51/M
413 William Peralta Roseville CA 749 27 M 31 25-29 1:28:34.0 8:51/M
414 Mark Huffman San Anselmo CA 448 56 M 26 55-59 1:28:38.0 8:52/M
415 Adam Bunnell Sacramento CA 1115 25 M 32 25-29 1:28:42.0 8:52/M
416 Aimee Moulin Sacramento CA 677 37 F 24 35-39 1:28:43.0 8:52/M
417 Andrea Cottrell Folsom CA 239 34 F 23 30-34 1:28:46.0 8:53/M
418 Kristen Donadee Folsom CA 277 35 F 25 35-39 1:29:00.0 8:54/M
419 Isabel Betancourt Citrus Heights CA 1078 42 F 17 40-44 1:29:04.0 8:54/M
420 Tim Angello Sacramento CA 72 42 M 48 40-44 1:29:07.0 8:55/M
421 Al Aguiniga South San Francisco CA 55 62 M 15 60-64 1:29:08.0 8:55/M
422 Jennifer Valdez Sacramento CA 981 43 F 18 40-44 1:29:12.0 8:55/M
423 Joel Contreras Carmichael CA 228 70 M 4 70-74 1:29:24.0 8:56/M
424 David D Smith West Sacramento CA 896 61 M 16 60-64 1:29:25.0 8:57/M
425 Kimberly Ploof Ballston Lake NY 762 44 F 19 40-44 1:29:27.0 8:57/M
426 Da Mey Sacramento CA 647 30 F 24 30-34 1:29:38.0 8:58/M
427 Bobby Rogers Woodland CA 822 39 M 31 35-39 1:29:44.0 8:58/M
428 Kathryn Dernham Oakland CA 265 54 F 14 50-54 1:29:45.0 8:59/M
429 Elizabeth Bertoy El Dorado Hills CA 1077 54 F 15 50-54 1:29:46.0 8:59/M
430 Ryan Calhoun Elverta CA 1123 36 M 32 35-39 1:29:47.0 8:59/M
431 Erin Calhoun Elverta CA 1122 33 F 25 30-34 1:29:48.0 8:59/M
432 Pete Andrew Charmichael CA 69 55 M 27 55-59 1:29:55.0 9:00/M
433 Irene Herman San Francisco CA 424 64 F 8 60-64 1:29:59.0 9:00/M
434 Charles Curran Sacramento -- 252 64 M 17 60-64 1:30:01.0 9:00/M
435 Mark Hendrie Sacramento CA 420 46 M 32 45-49 1:30:15.0 9:02/M
436 Thanwa Atinan Elk Grove CA 85 23 M 6 20-24 1:30:16.0 9:02/M
437 Vik Anderson Loomis CA 68 44 M 49 40-44 1:30:17.0 9:02/M
438 Mike Nesler Jackson CA 691 57 M 28 55-59 1:30:17.0 9:02/M
439 Jonpaul Ollenberger Stockton CA 712 43 M 50 40-44 1:30:18.0 9:02/M
440 Brandon Gephart Citrus Heights CA 356 29 M 33 25-29 1:30:18.0 9:02/M
441 Kristen York Olivehurst CA 1040 30 F 26 30-34 1:30:26.0 9:03/M
442 Dennis Rodman Sutter Creek CA 817 69 M 4 65-69 1:30:26.0 9:03/M
443 Kirsten Van Tuyl Sacramento CA 984 43 F 20 40-44 1:30:30.0 9:03/M
444 Hayden Leon San Diego CA 563 33 M 43 30-34 1:30:35.0 9:04/M
445 Sue Spivey North Highlands CA 912 50 F 16 50-54 1:30:39.0 9:04/M
446 Na Park Sacramento CA 735 48 F 12 45-49 1:30:42.0 9:04/M
447 Chester Fong Elk Grove CA 1262 42 M 51 40-44 1:30:46.0 9:05/M
448 Scott Craig Rancho Cordova CA 1217 40 M 52 40-44 1:30:52.0 9:05/M
449 Eric Grabin North Highlands CA 373 28 M 34 25-29 1:30:57.0 9:06/M
450 Makara Hang Elk Grove CA 397 42 M 53 40-44 1:31:00.0 9:06/M
451 Larry Venus Sacramento CA 989 55 M 29 55-59 1:31:07.0 9:07/M
452 Attilio Zasso Roseville CA 1049 51 M 42 50-54 1:31:10.0 9:07/M
453 Tony Ezerskis Fair Oaks CA 298 52 M 43 50-54 1:31:17.0 9:08/M
454 Richard Robertson Reno NV 815 38 M 33 35-39 1:31:22.0 9:08/M
455 Tisa Cassidy Orangevale CA 1148 32 F 27 30-34 1:31:22.0 9:08/M
456 Allison Rossiter Granite Bay CA 831 30 F 28 30-34 1:31:23.0 9:08/M
457 Nicole Sayers Fair Oaks CA 860 41 F 21 40-44 1:31:34.0 9:09/M
458 Austin Miller Las Vegas NV 650 27 M 35 25-29 1:31:36.0 9:10/M
459 Sita Saechao Sacramento CA 843 30 F 29 30-34 1:31:40.0 9:10/M
460 Ken Ives Sacramento CA 466 57 M 30 55-59 1:31:44.0 9:10/M
461 Luis Quintanilla Sacramento CA 781 32 M 44 30-34 1:31:44.0 9:10/M
462 Kelly Perkins Fair Oaks CA 752 38 F 26 35-39 1:31:49.0 9:11/M
463 Pablo Mogollon Folsom CA 1193 45 M 33 45-49 1:31:51.0 9:11/M
464 Tim Gallagher Yuba City CA 341 48 M 34 45-49 1:32:06.0 9:13/M
465 Lyle Labeaud Folsom CA 1187 54 M 44 50-54 1:32:07.0 9:13/M
466 Anne Marder Sacramento CA 1170 57 F 9 55-59 1:32:12.0 9:13/M
467 Chad Bible Sparks NV 1195 43 M 54 40-44 1:32:24.0 9:14/M
468 Jolene Pasztor Rancho Cordova CA 739 31 F 30 30-34 1:32:26.0 9:15/M
469 Brandon Hallock Sparks NV 391 32 M 45 30-34 1:32:28.0 9:15/M
470 Kerry Kiernan Livermore CA 516 41 M 55 40-44 1:32:30.0 9:15/M
471 Paul Duax Sacramento CA 286 51 M 45 50-54 1:32:31.0 9:15/M
472 Brigida Harrison Sacramento CA 405 42 F 22 40-44 1:32:37.0 9:16/M
473 Ed Beci Elk Grove CA 1060 43 M 56 40-44 1:32:38.0 9:16/M
474 Lisa Lee Sacramento CA 555 35 F 27 35-39 1:32:43.0 9:16/M
475 Joshua Golka Roseville CA 363 38 M 34 35-39 1:32:49.0 9:17/M
476 Efren Preciado West Sacramento CA 1188 52 M 46 50-54 1:32:56.0 9:18/M
477 Andrea Johnson Folsom CA 477 39 F 28 35-39 1:33:06.0 9:19/M
478 Catherine Jacobs Folsom CA 467 39 F 29 35-39 1:33:07.0 9:19/M
479 Mishel Kaufman Windsor CA 501 42 F 23 40-44 1:33:11.0 9:19/M
480 Jenny Iskandar Rancho Cordova CA 463 41 F 24 40-44 1:33:11.0 9:19/M
481 Derrick Booth Sacramento CA 1094 45 M 35 45-49 1:33:17.0 9:20/M
482 Susie Roll Chico CA 824 44 F 25 40-44 1:33:29.0 9:21/M
483 Elizabeth Howard Roseville CA 443 28 F 30 25-29 1:33:33.0 9:21/M
484 Miguel Vadillo Leon Folsom CA 979 28 M 36 25-29 1:33:34.0 9:21/M
485 Yvonne Nickel West Sacramento CA 1175 65 F 2 65-69 1:33:36.0 9:22/M
486 Allyson Trethewey Sacramento CA 967 46 F 13 45-49 1:33:39.0 9:22/M
487 Janine Bera Elk Grove CA 1073 47 F 14 45-49 1:33:45.0 9:23/M
488 Chris Moy Fair Oaks CA 681 36 M 35 35-39 1:33:45.0 9:23/M
489 Helen Zurek Penn Valley CA 1052 47 F 15 45-49 1:33:52.0 9:23/M
490 Sean Murphy Live Oak CA 685 61 M 18 60-64 1:34:11.0 9:25/M
491 Kelley Schranz Valencia CA 870 63 F 9 60-64 1:34:13.0 9:25/M
492 Mike Slater Jackson CA 893 62 M 19 60-64 1:34:26.0 9:27/M
493 Ross Buckley Sacramento CA 1111 26 M 37 25-29 1:34:27.0 9:27/M
494 Lessie Stewart Sacramento CA 927 49 F 16 45-49 1:34:43.0 9:28/M
495 Danielle Mefferd Sacramento CA 643 23 F 5 20-24 1:34:45.0 9:29/M
496 Jeff Maebori Sacramento CA 602 43 M 57 40-44 1:34:50.0 9:29/M
497 Christopher Gong Folsom CA 365 41 M 58 40-44 1:34:52.0 9:29/M
498 Ed Hernandez Elk Grove CA 425 38 M 36 35-39 1:34:53.0 9:29/M
499 Breann Zweck Roseville CA 1053 33 F 31 30-34 1:34:58.0 9:30/M
500 Michael Gidding Sacramento CA 357 44 M 59 40-44 1:34:58.0 9:30/M
 
Place Name City Bib No Age Gender Age Group Total Time Pace
501 Preston Ducati Redmond WA 1229 41 M 60 40-44 1:34:59.0 9:30/M
502 Naomi Padron Sacramento CA 725 25 F 31 25-29 1:35:08.0 9:31/M
503 Steven Cocciardi Sacramento CA 217 29 M 38 25-29 1:35:08.0 9:31/M
504 Alberto Tamayo Woodland CA 1247 29 M 39 25-29 1:35:14.0 9:31/M
505 Carina Kool Roseville CA 532 34 F 32 30-34 1:35:22.0 9:32/M
506 Robert English Martinez CA 1244 45 M 36 45-49 1:35:25.0 9:33/M
507 Richard English Redding CA 1248 45 M 37 45-49 1:35:25.0 9:33/M
508 Nina Hallock Sparks NV 392 29 F 32 25-29 1:35:26.0 9:33/M
509 Dawn Lowell Granite Bay CA 587 40 F 26 40-44 1:35:29.0 9:33/M
510 Sonia Newman El Dorado Hills CA 695 40 F 27 40-44 1:35:30.0 9:33/M
511 Steve Swindel Sacramento CA 1163 60 M 20 60-64 1:35:34.0 9:33/M
512 David Hoig Sacramento CA 434 43 M 61 40-44 1:35:35.0 9:34/M
513 Jody McCullough Lafayette CA 628 51 M 47 50-54 1:35:38.0 9:34/M
514 Imelda Geffrey/ Sacramento CA 353 48 F 17 45-49 1:35:41.0 9:34/M
515 Jessica Wilson Auburn CA 1018 28 F 33 25-29 1:35:45.0 9:35/M
516 Arlette Garcia Sacramento CA 344 36 F 30 35-39 1:35:47.0 9:35/M
517 Raul Cardenas Mather CA 1137 35 M 37 35-39 1:35:51.0 9:35/M
518 Mae Timoteo San Diego CA 961 29 F 34 25-29 1:35:52.0 9:35/M
519 Melissa Kreiss Granite Bay CA 536 38 F 31 35-39 1:35:56.0 9:36/M
520 Hassan Aboukhadijeh El Dorado Hills CA 51 53 M 48 50-54 1:35:57.0 9:36/M
521 Jessica Epley Lincoln CA 295 29 F 35 25-29 1:35:57.0 9:36/M
522 Alla Lebich Antelope CA 554 27 F 36 25-29 1:35:58.0 9:36/M
523 Bryn Mumma Sacramento CA 684 33 F 33 30-34 1:35:59.0 9:36/M
524 Graciela Ramirez Reno NV 787 32 F 34 30-34 1:36:02.0 9:36/M
525 Kerri Bartlett Colusa CA 98 61 F 10 60-64 1:36:04.0 9:36/M
526 Jane Stephens San Francisco CA 922 18 F 1 1-19 1:36:11.0 9:37/M
527 Craig Beaudry Vacaville CA 1058 42 M 62 40-44 1:36:24.0 9:38/M
528 Keziha Plouff Olivehurst CA 763 45 F 18 45-49 1:36:25.0 9:39/M
529 Joann Hall Redding CA 390 72 F 1 70-74 1:36:28.0 9:39/M
530 Meryem Akram Sacramento CA 56 25 F 37 25-29 1:36:30.0 9:39/M
531 Meg Pollard Roseville CA 768 51 F 17 50-54 1:36:31.0 9:39/M
532 Lindsay Bostrom Citrus Heights CA 1097 31 F 35 30-34 1:36:36.0 9:40/M
533 Gina Ketcher Sacramento CA 510 43 F 28 40-44 1:36:50.0 9:41/M
534 Holly Grellier Portland OR 379 39 F 32 35-39 1:36:50.0 9:41/M
535 Angie Smith Sacramento CA 895 45 F 19 45-49 1:36:51.0 9:41/M
536 Jean Cordalis Carmichael CA 235 55 F 10 55-59 1:36:56.0 9:42/M
537 Dennis Flannigan Reno NV 320 62 M 21 60-64 1:36:58.0 9:42/M
538 Marina Armbruster Sacramento CA 79 51 F 18 50-54 1:37:21.0 9:44/M
539 Judy Jennings Orangevale CA 473 61 F 11 60-64 1:37:34.0 9:45/M
540 Liza McAdam Granite Bay CA 625 42 F 29 40-44 1:37:35.0 9:46/M
541 John Pamer Concord CA 533 46 M 38 45-49 1:37:38.0 9:46/M
542 Rachael Waugh San Mateo CA 1000 23 F 6 20-24 1:37:40.0 9:46/M
543 Victoria Waugh San Luis Obispo CA 1001 21 F 7 20-24 1:37:40.0 9:46/M
544 Steven Polansky Carmichael CA 766 67 M 5 65-69 1:37:44.0 9:46/M
545 Stephanie Holtz Sacramento CA 1157 29 F 38 25-29 1:37:48.0 9:47/M
546 Andrew McKeon Sacramento CA 633 36 M 38 35-39 1:37:55.0 9:48/M
547 Diane Forrest Sacramento CA 324 52 F 19 50-54 1:38:03.0 9:48/M
548 Alison Vander Veen Folsom CA 985 34 F 36 30-34 1:38:06.0 9:49/M
549 Alex Sahrakar Carmichael CA 846 20 F 8 20-24 1:38:07.0 9:49/M
550 Kevin Erlandson Sacramento CA 296 59 M 31 55-59 1:38:08.0 9:49/M
551 Stephen Payne Elverta CA 745 48 M 39 45-49 1:38:09.0 9:49/M
552 Michell Hart Rocklin CA 408 32 F 37 30-34 1:38:12.0 9:49/M
553 Ken Cohen El Dorado Hills CA 220 45 M 40 45-49 1:38:27.0 9:51/M
554 Tahira Singh Sacramento CA 890 25 F 39 25-29 1:38:27.0 9:51/M
555 Laura Frazier Sacramento CA 330 23 F 9 20-24 1:38:30.0 9:51/M
556 Ali O'Shea San Francisco CA 719 28 F 40 25-29 1:38:31.0 9:51/M
557 Pat McMurray Woodland CA 637 51 M 49 50-54 1:38:31.0 9:51/M
558 Shannon Warren Reno NV 998 39 F 33 35-39 1:38:35.0 9:52/M
559 Santiago Aguilar Sacramento CA 54 36 M 39 35-39 1:38:35.0 9:52/M
560 Jackie Lewis Sacramento CA 567 52 F 20 50-54 1:38:41.0 9:52/M
561 Case Van Dam Davis CA 1181 59 M 32 55-59 1:38:42.0 9:52/M
562 Judie Boehmer Sacramento CA 1091 49 F 20 45-49 1:38:46.0 9:53/M
563 Kellee Davenport Jackson CA 256 46 F 21 45-49 1:38:47.0 9:53/M
564 Linda Miotti Glencoe CA 654 53 F 21 50-54 1:38:48.0 9:53/M
565 Kat Powell San Jose CA 772 63 F 12 60-64 1:39:07.0 9:55/M
566 Yager Brent Sacramento CA 1178 42 M 63 40-44 1:39:09.0 9:55/M
567 Nicholas Gonzalez Merced CA 367 30 M 46 30-34 1:39:12.0 9:55/M
568 Robin Hardy Sacramento CA 400 61 F 13 60-64 1:39:13.0 9:55/M
569 Gina Royball Elk Grove CA 834 23 F 10 20-24 1:39:15.0 9:56/M
570 Elizabeth Long Sacramento CA 579 26 F 41 25-29 1:39:29.0 9:57/M
571 Ryan Stanfield Sacramento CA 913 27 M 40 25-29 1:39:29.0 9:57/M
572 Marianne Temple Sacramento CA 953 49 F 22 45-49 1:39:43.0 9:58/M
573 Joseph Ibe Hayward CA 459 31 M 47 30-34 1:39:44.0 9:58/M
574 Danielle Wallace Sacramento CA 995 28 F 42 25-29 1:39:52.0 9:59/M
575 Karie Pluto Orangevale CA 764 40 F 30 40-44 1:40:09.0 10:01/M
576 Joanne Cook Sacramento CA 230 37 F 34 35-39 1:40:10.0 10:01/M
577 Richard Brockway Sacramento CA 1105 58 M 33 55-59 1:40:12.0 10:01/M
578 Anna Conway Sacramento CA 229 29 F 43 25-29 1:40:14.0 10:01/M
579 Rafaela Rodriguez San Diego CA 820 34 F 38 30-34 1:40:36.0 10:04/M
580 Debbie Palmer West Sacramento CA 729 50 F 22 50-54 1:40:38.0 10:04/M
581 Lisa Sanchas Sacramento -- 851 39 F 35 35-39 1:40:46.0 10:05/M
582 Steve Chagolla Folsom CA 1153 41 M 64 40-44 1:40:46.0 10:05/M
583 Chris Larsen Carmichael CA 1169 63 M 22 60-64 1:40:52.0 10:05/M
584 Ronald Nocon Elk Grove CA 700 41 M 65 40-44 1:40:53.0 10:05/M
585 Angie Stuart Sacramento CA 933 43 F 31 40-44 1:40:54.0 10:05/M
586 Elaine Lintecum Sacramento CA 575 58 F 11 55-59 1:40:56.0 10:06/M
587 David Becker Folsom CA 1061 52 M 50 50-54 1:41:02.0 10:06/M
588 Judith Stark-Modlin Chico CA 917 27 F 44 25-29 1:41:03.0 10:06/M
589 Randolph Subryan Jr Folsom CA 936 43 M 66 40-44 1:41:04.0 10:06/M
590 Nancy Snider Stockton CA 902 54 F 23 50-54 1:41:08.0 10:07/M
591 Katharine Biwott Folsom CA 1086 28 F 45 25-29 1:41:11.0 10:07/M
592 Aliasha Ruland Roseville CA 837 37 F 36 35-39 1:41:17.0 10:08/M
593 Ian Sanchez Elk Grove CA 852 32 M 48 30-34 1:41:22.0 10:08/M
594 Patrick Smith South San Francisco CA 899 28 M 41 25-29 1:41:23.0 10:08/M
595 Stefanie Ordoveza South San Francisco CA 718 28 F 46 25-29 1:41:23.0 10:08/M
596 Stuart Harrison Folsom CA 406 46 M 41 45-49 1:41:31.0 10:09/M
597 Jennifer Marsh Sacramento CA 612 29 F 47 25-29 1:41:54.0 10:11/M
598 Alliver Verzon Sacramento CA 990 24 M 7 20-24 1:41:55.0 10:12/M
599 Maile Thompson Belmont CA 1264 28 F 48 25-29 1:42:06.0 10:13/M
600 Kim Farrens Sacramento CA 302 47 F 23 45-49 1:42:23.0 10:14/M
 
Place Name City Bib No Age Gender Age Group Total Time Pace
601 Steve Melody Elk Grove CA 645 49 M 42 45-49 1:42:23.0 10:14/M
602 Leah Tzimenatos Sacramento CA 975 38 F 37 35-39 1:42:45.0 10:17/M
603 Julie Neberman Auburn CA 688 53 F 24 50-54 1:42:50.0 10:17/M
604 Chuck Olson Auburn CA 714 58 M 34 55-59 1:42:50.0 10:17/M
605 Brianne Sampson Pacifica CA 849 30 F 39 30-34 1:43:11.0 10:19/M
606 Dana O'Dell Stockton CA 706 35 F 38 35-39 1:43:14.0 10:19/M
607 Frank Humenik Sacramento CA 455 53 M 51 50-54 1:43:16.0 10:20/M
608 Jessica Frantzich Sacramento CA 329 30 F 40 30-34 1:43:17.0 10:20/M
609 Sharon Sims Granite Bay -- 887 48 F 24 45-49 1:43:24.0 10:20/M
610 Robert Smith Sacramento CA 900 29 M 42 25-29 1:43:27.0 10:21/M
611 Eric Okada Roseville CA 710 38 M 40 35-39 1:43:32.0 10:21/M
612 Rich Fuglewicz Carmichael CA 336 62 M 23 60-64 1:43:38.0 10:22/M
613 Nathan Schmidt San Diego CA 865 36 M 41 35-39 1:43:41.0 10:22/M
614 Todd Stoltenberg West Sacramento CA 929 52 M 52 50-54 1:43:43.0 10:22/M
615 Keven Stewart Sacramento CA 926 55 M 35 55-59 1:43:43.0 10:22/M
616 Esther Ong Sacramento CA 717 39 F 39 35-39 1:43:53.0 10:23/M
617 Jeff Sargent Shingle Springs CA 855 35 M 42 35-39 1:43:56.0 10:24/M
618 Cathlene Lett Chicago IL 565 32 F 41 30-34 1:44:02.0 10:24/M
619 Lynne Ruvalcaba Fair Oaks CA 841 44 F 32 40-44 1:44:12.0 10:25/M
620 Christina Boyd Castro Valley CA 1098 42 F 33 40-44 1:44:20.0 10:26/M
621 Marquisha Baugh Sacramento CA 1055 40 F 34 40-44 1:44:21.0 10:26/M
622 Angela Guthrie Fallon NV 383 32 F 42 30-34 1:44:35.0 10:28/M
623 Beth Olmstead Sacramento CA 713 29 F 49 25-29 1:44:38.0 10:28/M
624 Ryan Niemeyer Sacramento CA 699 39 M 43 35-39 1:44:50.0 10:29/M
625 Kimberly Niemeyer Sacramento CA 698 43 F 35 40-44 1:44:50.0 10:29/M
626 Paul Huegel Orangevale CA 446 43 M 67 40-44 1:45:00.0 10:30/M
627 Jadie Huegel Orangevale CA 445 38 F 40 35-39 1:45:00.0 10:30/M
628 David Norlander Los Altos CA 702 75 M 3 75-79 1:45:12.0 10:31/M
629 Mike Petris Sacramento CA 756 52 M 53 50-54 1:45:15.0 10:32/M
630 Kara Petris Sacramento CA 755 36 F 41 35-39 1:45:15.0 10:32/M
631 Yukari Shirahama Roseville CA 880 41 F 36 40-44 1:45:20.0 10:32/M
632 Richard Hodel Alameda CA 432 59 M 36 55-59 1:45:28.0 10:33/M
633 Inna Yavniy Fair Oaks CA 1036 30 F 43 30-34 1:45:33.0 10:33/M
634 Matthew Krula Concord CA 537 28 M 43 25-29 1:45:39.0 10:34/M
635 Rich Colwell Penryn CA 225 58 M 37 55-59 1:45:48.0 10:35/M
636 Gabrielle Stidger Jackson CA 928 33 F 44 30-34 1:45:51.0 10:35/M
637 Jason Kelly Antelope CA 506 43 M 68 40-44 1:45:59.0 10:36/M
638 Emily Pavelchik Elk Grove CA 743 23 F 11 20-24 1:46:03.0 10:36/M
639 Christine Wellins Sacramento CA 1156 62 F 14 60-64 1:46:05.0 10:37/M
640 Robert Thompson Trabuco Canyon CA 958 54 M 54 50-54 1:46:11.0 10:37/M
641 Kristin Bainbridge Folsom CA 90 35 F 42 35-39 1:46:14.0 10:37/M
642 Lindsay Taylor Folsom CA 1155 34 F 45 30-34 1:46:15.0 10:38/M
643 Shanna Kloberdanz Sacramento CA 523 45 F 25 45-49 1:46:17.0 10:38/M
644 Jasmine Reese Sacramento CA 797 40 F 37 40-44 1:46:27.0 10:39/M
645 Bruce Yoshida Carmichael CA 1041 59 M 38 55-59 1:46:35.0 10:40/M
646 Kelly O'Dowd El Dorado Hills CA 708 20 F 12 20-24 1:46:38.0 10:40/M
647 Shannan Bandermann Folsom CA 96 44 F 38 40-44 1:46:40.0 10:40/M
648 Robina Bennion El Dorado Hills CA 1250 42 F 39 40-44 1:46:43.0 10:40/M
649 Nancy Farias Sacramento CA 1174 41 F 40 40-44 1:46:48.0 10:41/M
650 Dionne Ainslie Roseville CA 1166 45 F 26 45-49 1:46:59.0 10:42/M
651 Sam Schranz Sacramento CA 871 34 F 46 30-34 1:47:07.0 10:43/M
652 Monique Hopkins Houston TX 438 38 F 43 35-39 1:47:26.0 10:45/M
653 Tupper Hull Sacramento CA 453 63 M 24 60-64 1:47:54.0 10:47/M
654 Leigh Rutledge Sacramento CA 840 58 F 12 55-59 1:48:00.0 10:48/M
655 Stephanie Dettling Sacramento CA 267 24 F 13 20-24 1:48:02.0 10:48/M
656 Selena Davaloz North Highlands CA 1184 26 F 50 25-29 1:48:02.0 10:48/M
657 James Willis Folsom CA 1016 42 M 69 40-44 1:48:03.0 10:48/M
658 Melanie Vail Sacramento CA 980 32 F 47 30-34 1:48:16.0 10:50/M
659 Carrie Yoshida Carmichael CA 1042 57 F 13 55-59 1:48:19.0 10:50/M
660 Kristy Palmer Sacramento CA 730 39 F 44 35-39 1:48:30.0 10:51/M
661 Debra Stroud Sacramento CA 931 53 F 25 50-54 1:48:37.0 10:52/M
662 Lori Zoller Roseville CA 1252 51 F 26 50-54 1:48:38.0 10:52/M
663 John Gates Novato CA 348 61 M 25 60-64 1:48:42.0 10:52/M
664 Jamie Green West Sacramento CA 377 37 F 45 35-39 1:48:46.0 10:53/M
665 Nasim Fazel Fair Oaks CA 305 45 F 27 45-49 1:48:46.0 10:53/M
666 Chris Pelzman Roseville CA 747 41 M 70 40-44 1:48:47.0 10:53/M
667 Yanett Cabrera Livingston CA 1120 30 F 48 30-34 1:48:48.0 10:53/M
668 Cynci Calvin Auburn CA 1126 67 F 3 65-69 1:48:50.0 10:53/M
669 Lucia Romero Sacramento CA 826 29 F 51 25-29 1:48:51.0 10:53/M
670 Carolyn Slavich Sacramento CA 894 72 F 2 70-74 1:48:55.0 10:54/M
671 Cary Jung Sacramento CA 491 59 M 39 55-59 1:49:05.0 10:55/M
672 Kei Otani El Dorado Hills CA 722 43 M 71 40-44 1:49:10.0 10:55/M
673 Allen Wong Fair Oaks CA 1026 29 M 44 25-29 1:49:16.0 10:56/M
674 Carla Doran Roseville CA 281 49 F 28 45-49 1:49:26.0 10:57/M
675 Christi Mitchell Folsom CA 655 23 F 14 20-24 1:49:27.0 10:57/M
676 Stacy Schutte Dixon CA 1251 35 F 46 35-39 1:49:34.0 10:57/M
677 Laurie Proulx Sacramento CA 776 53 F 27 50-54 1:49:38.0 10:58/M
678 Linda Lingelbach Sacramento CA 574 43 F 41 40-44 1:49:38.0 10:58/M
679 Meghan Hurley Rancho Cordova CA 456 34 F 49 30-34 1:49:39.0 10:58/M
680 Jessica Kapucinski Folsom CA 497 38 F 47 35-39 1:49:40.0 10:58/M
681 Randy Robb Chico CA 811 50 M 55 50-54 1:49:46.0 10:59/M
682 Megan Lindquist Fairfield CA 573 38 F 48 35-39 1:49:46.0 10:59/M
683 John Simmons Sacramento CA 886 46 M 43 45-49 1:50:15.0 11:02/M
684 Neil Patel Santa Clara CA 740 29 M 45 25-29 1:50:18.0 11:02/M
685 Sarah Horm Sparks NV 441 36 F 49 35-39 1:50:21.0 11:02/M
686 Tamara Geary Sacramento CA 352 34 F 50 30-34 1:50:23.0 11:02/M
687 James Geary Sacramento CA 349 67 M 6 65-69 1:50:23.0 11:02/M
688 Lindsay Ellis Sacramento CA 293 26 F 52 25-29 1:50:37.0 11:04/M
689 Paul Guterres Newark CA 382 56 M 40 55-59 1:50:41.0 11:04/M
690 Carrie Ramage Sacramento CA 785 43 F 42 40-44 1:50:43.0 11:04/M
691 Joyce Mikal-Flynn Sacramento CA 649 59 F 14 55-59 1:50:44.0 11:04/M
692 Heather Burns San Francisco CA 1119 31 F 51 30-34 1:50:59.0 11:06/M
693 Sian Magee Fair Oaks CA 604 35 F 50 35-39 1:51:04.0 11:06/M
694 Jocelyn Montgomery Clearlake Oaks CA 665 62 F 15 60-64 1:51:05.0 11:07/M
695 Sarah Ream Sacramento CA 792 42 F 43 40-44 1:51:15.0 11:08/M
696 Cecilie MacIntyre Sacramento CA 601 36 F 51 35-39 1:51:15.0 11:08/M
697 Cara Padilla Sacramento CA 724 32 F 52 30-34 1:51:22.0 11:08/M
698 Mike Donohue Livermore CA 278 52 M 56 50-54 1:51:26.0 11:09/M
699 Kali Graham Oakley CA 374 45 F 29 45-49 1:51:31.0 11:09/M
700 Amanda Allen North Highlands CA 58 37 F 52 35-39 1:51:37.0 11:10/M
 
Place Name City Bib No Age Gender Age Group Total Time Pace
701 Elizabeth Hamm Berkeley CA 393 33 F 53 30-34 1:51:40.0 11:10/M
702 Alvin Montilla Rocklin CA 666 37 M 44 35-39 1:51:43.0 11:10/M
703 Michelle Alves West Sacramento CA 64 35 F 53 35-39 1:51:44.0 11:10/M
704 George Chadwell Folsom CA 1152 55 M 41 55-59 1:52:03.0 11:12/M
705 Agustinus Poedyasmara Sacramento CA 765 42 M 72 40-44 1:52:09.0 11:13/M
706 Lynne Arcangel Ca -- 76 36 F 54 35-39 1:52:10.0 11:13/M
707 Mike Henry Folsom CA 421 41 M 73 40-44 1:52:14.0 11:13/M
708 Michael Majarais El Dorado Hills CA 606 38 M 45 35-39 1:52:22.0 11:14/M
709 Phil Montalbano Fair Oaks CA 663 49 M 44 45-49 1:52:28.0 11:15/M
710 Cassandra Keyse Carmichael CA 512 26 F 53 25-29 1:52:37.0 11:16/M
711 Elizabeth Lieb Palo Alto CA 568 39 F 55 35-39 1:52:38.0 11:16/M
712 Penny Knobbe Folsom CA 524 36 F 56 35-39 1:52:39.0 11:16/M
713 Jennifer Kachmar Sacramento CA 493 40 F 44 40-44 1:52:40.0 11:16/M
714 Samantha Chang Carmichael CA 203 34 F 54 30-34 1:52:46.0 11:17/M
715 Peter Chang Carmichael CA 202 38 M 46 35-39 1:52:46.0 11:17/M
716 Lisa Hegdahl Lodi CA 417 51 F 28 50-54 1:52:47.0 11:17/M
717 Aholibama Escobar Livermore CA 297 38 F 57 35-39 1:53:00.0 11:18/M
718 Steven Stapp San Francisco CA 916 48 M 45 45-49 1:53:09.0 11:19/M
719 Ami Bera Elk Grove CA 1072 49 M 46 45-49 1:53:19.0 11:20/M
720 Kari Fisher Davis CA 315 33 F 55 30-34 1:53:22.0 11:20/M
721 Nancy Landers Carmichael CA 541 62 F 16 60-64 1:53:40.0 11:22/M
722 Rickie Billingsly Sacramento CA 1082 18 M 6 1-19 1:53:42.0 11:22/M
723 Andrea Berryhill West Sacramento CA 1076 59 F 15 55-59 1:53:42.0 11:22/M
724 Sherry Toutges Folsom CA 963 40 F 45 40-44 1:53:52.0 11:23/M
725 Melissa Welch Daly City CA 1005 29 F 54 25-29 1:53:53.0 11:23/M
726 Kim Crimmins Sacramento CA 246 46 F 30 45-49 1:53:57.0 11:24/M
727 Carmellee Hebron Rocklin CA 416 30 F 56 30-34 1:54:07.0 11:25/M
728 Fay Hui Elk Grove CA 452 37 F 58 35-39 1:54:12.0 11:25/M
729 Linda Luong Rancho Cordova CA 596 32 F 57 30-34 1:54:27.0 11:27/M
730 Scott Carson Sacramento CA 1143 52 M 57 50-54 1:54:30.0 11:27/M
731 Kathie Rose Woodland CA 1236 46 F 31 45-49 1:54:34.0 11:27/M
732 Csilla Bolya Rancho Cordova CA 1093 51 F 29 50-54 1:54:41.0 11:28/M
733 Tracy Hulse Fair Oaks CA 454 36 F 59 35-39 1:54:45.0 11:29/M
734 Jeannette Hagen Rancho Cordova CA 389 59 F 16 55-59 1:54:53.0 11:29/M
735 Becky Brookshire Sacramento CA 1106 35 F 60 35-39 1:55:21.0 11:32/M
736 Sonya Sorich El Dorado Hills CA 1256 32 F 58 30-34 1:55:36.0 11:34/M
737 Mark Staniak Sacramento CA 1164 49 M 47 45-49 1:55:37.0 11:34/M
738 Mary Haugrud Shingle Springs CA 413 44 F 46 40-44 1:55:46.0 11:35/M
739 Suzanne Franco Oakland CA 326 72 F 3 70-74 1:55:48.0 11:35/M
740 Melissa Ann Apuya Sacramento CA 74 28 F 55 25-29 1:55:52.0 11:35/M
741 Jenny Woltz Sacramento CA 1173 38 F 61 35-39 1:55:56.0 11:36/M
742 Emily Olavarri Davis CA 1183 37 F 62 35-39 1:55:57.0 11:36/M
743 Lisa Silva Sacramento CA 885 49 F 32 45-49 1:56:05.0 11:37/M
744 Michael Jones Elk Grove CA 487 51 M 58 50-54 1:56:08.0 11:37/M
745 Cathy Moy Fair Oaks CA 680 44 F 47 40-44 1:56:20.0 11:38/M
746 Stephanie Bamberger Sacramento CA 1162 44 F 48 40-44 1:56:27.0 11:39/M
747 Natasha Langenfeld Sacramento CA 545 33 F 59 30-34 1:56:38.0 11:40/M
748 Robert Heitner Rancho Cordova CA 418 45 M 48 45-49 1:56:44.0 11:40/M
749 Sharon Quan Sacramento CA 777 56 F 17 55-59 1:56:49.0 11:41/M
750 Michelle Yamanaka Sacramento CA 1035 46 F 33 45-49 1:56:49.0 11:41/M
751 Sandeep Gadhok Sacramento CA 339 43 M 74 40-44 1:56:54.0 11:41/M
752 Ellen Lefevre Sacramento CA 557 38 F 63 35-39 1:56:54.0 11:41/M
753 Barry Trute Citrus Heights CA 971 54 M 59 50-54 1:56:59.0 11:42/M
754 Collene Crawford North Highlands CA 241 54 F 30 50-54 1:57:13.0 11:43/M
755 Amanda Alverson Sparks NV 63 27 F 56 25-29 1:57:13.0 11:43/M
756 Veronica Zamarripa Merced CA 1046 34 F 60 30-34 1:57:29.0 11:45/M
757 Kari Wolford Folsom CA 1025 35 F 64 35-39 1:57:57.0 11:48/M
758 Paula O'Laughlin Sacramento CA 711 55 F 18 55-59 1:57:59.0 11:48/M
759 Michelle Corbit Folsom CA 234 44 F 49 40-44 1:58:04.0 11:48/M
760 Angela Taylor Folsom CA 946 45 F 34 45-49 1:58:05.0 11:49/M
761 Suzanne Leedale San Luis Obispo CA 556 40 F 50 40-44 1:58:09.0 11:49/M
762 Christina Armstrong Sacramento CA 80 28 F 57 25-29 1:58:13.0 11:49/M
763 Michael Terrado Hayward CA 955 28 M 46 25-29 1:58:19.0 11:50/M
764 Heather Williams Lincoln CA 1015 39 F 65 35-39 1:58:22.0 11:50/M
765 Erin Stumpf Sacramento CA 934 35 F 66 35-39 1:58:27.0 11:51/M
766 Lisa Sorensen Sacramento CA 905 53 F 31 50-54 1:58:42.0 11:52/M
767 Jennifer Park Fair Oaks CA 734 49 F 35 45-49 1:58:44.0 11:52/M
768 Angelito Jojo Cristobal Fairfield CA 247 31 M 49 30-34 1:59:05.0 11:55/M
769 Sheryl Maurer Elk Grove CA 624 54 F 32 50-54 1:59:14.0 11:55/M
770 Veronica Desrosiers Rancho Cucamonga CA 266 37 F 67 35-39 1:59:26.0 11:57/M
771 Jude Gogan Walnut Creek CA 362 56 F 19 55-59 1:59:29.0 11:57/M
772 Ayesha Wilder West Sacramento CA 1012 37 F 68 35-39 1:59:30.0 11:57/M
773 Roberta Meehan Roseville CA 641 53 F 33 50-54 1:59:45.0 11:59/M
774 Suzanne Cardenas Mather CA 1138 38 F 69 35-39 1:59:50.0 11:59/M
775 Nicol Langley Cameron Park CA 546 41 F 51 40-44 1:59:51.0 11:59/M
776 Krystle Heslep Citrus Heights CA 428 27 F 58 25-29 2:00:00.0 12:00/M
777 Jennifer Jones Sacramento CA 484 27 F 59 25-29 2:00:01.0 12:00/M
778 Eddie Reyna Sunnyvale CA 804 83 M 1 80-99 2:00:05.0 12:01/M
779 Jd Miller Vallejo CA 651 70 M 5 70-74 2:00:14.0 12:01/M
780 Chantelle Risor Sacramento -- 808 38 F 70 35-39 2:00:38.0 12:04/M
781 Kimberly Muljat Sacramento CA 683 33 F 61 30-34 2:00:44.0 12:04/M
782 Tracey Valentine Fair Oaks CA 982 47 F 36 45-49 2:00:44.0 12:04/M
783 Glen Barthold Reno NV 97 42 M 75 40-44 2:00:45.0 12:05/M
784 Tiffany Kim Sacramento CA 518 35 F 71 35-39 2:01:12.0 12:07/M
785 Shruti Gadhok Sacramento CA 340 41 F 52 40-44 2:01:12.0 12:07/M
786 Kristi Lozano El Cerrito CA 589 29 F 60 25-29 2:01:28.0 12:09/M
787 Tamara Garcia Sacramento CA 346 50 F 34 50-54 2:01:51.0 12:11/M
788 Lori Arcangel El Macero CA 75 41 F 53 40-44 2:02:21.0 12:14/M
789 Shelia Miller Turlock CA 653 54 F 35 50-54 2:02:25.0 12:15/M
790 Louise Bennett Carmichael CA 1070 40 F 54 40-44 2:02:30.0 12:15/M
791 Ian West Sacramento CA 1007 30 M 50 30-34 2:02:51.0 12:17/M
792 Judith Tijero Manteca CA 1191 34 F 62 30-34 2:03:10.0 12:19/M
793 Tyffany Holland Roseville CA 435 30 F 63 30-34 2:03:14.0 12:19/M
794 Julie Bedell Folsom CA 1062 39 F 72 35-39 2:03:17.0 12:20/M
795 Fran Lehnert Georgetown CA 558 27 F 61 25-29 2:03:20.0 12:20/M
796 Meghan Sartain Redwood City CA 856 32 F 64 30-34 2:03:39.0 12:22/M
797 Tricia Sartain Redwood City CA 857 34 M 51 30-34 2:03:39.0 12:22/M
798 Karin Shine Sacramento CA 879 44 F 55 40-44 2:03:57.0 12:24/M
799 Marilee Mann Carmichael CA 609 35 F 73 35-39 2:04:26.0 12:27/M
800 Kayla Clement Susanville CA 215 26 F 62 25-29 2:04:41.0 12:28/M
 
Place Name City Bib No Age Gender Age Group Total Time Pace
801 Carlos Lopez Richmond CA 582 36 M 47 35-39 2:04:43.0 12:28/M
802 John Twilling Sacramento CA 974 62 M 26 60-64 2:04:43.0 12:28/M
803 Christopher Bennett Carmichael CA 1068 44 M 76 40-44 2:04:51.0 12:29/M
804 Tammi Kerch West Sacramento CA 509 51 F 36 50-54 2:04:59.0 12:30/M
805 Sandy Finnegan Folsom CA 314 55 F 20 55-59 2:05:15.0 12:32/M
806 Stephanie Yearwood Rancho Cordova CA 1038 45 F 37 45-49 2:05:39.0 12:34/M
807 Lindsay Edgerton Roseville CA 290 35 F 74 35-39 2:05:48.0 12:35/M
808 Beng Lim Roseville CA 571 52 M 60 50-54 2:05:49.0 12:35/M
809 Anne Lim Roseville CA 570 46 F 38 45-49 2:05:49.0 12:35/M
810 Linda Jefferson Roseville CA 472 45 F 39 45-49 2:05:50.0 12:35/M
811 Ronda Tappan Roseville CA 945 41 F 56 40-44 2:05:54.0 12:35/M
812 Greg Jefferson Roseville CA 471 45 M 49 45-49 2:05:58.0 12:36/M
813 Ross Johnson Gold River CA 480 68 M 7 65-69 2:05:59.0 12:36/M
814 Shannon Buelna Sacramento CA 1112 35 F 75 35-39 2:06:21.0 12:38/M
815 John Dupree Sacramento CA 1172 24 M 8 20-24 2:07:11.0 12:43/M
816 Norma Moctezuma Sacramento CA 656 22 F 15 20-24 2:07:13.0 12:43/M
817 Anna Dupree Sacramento CA 1171 34 F 65 30-34 2:07:16.0 12:44/M
818 Kate Su Sacramento CA 1182 32 F 66 30-34 2:07:16.0 12:44/M
819 Margo Baxter Sacramento CA 1202 44 F 57 40-44 2:07:21.0 12:44/M
820 Marlene Johnson Citrus Heights CA 479 58 F 21 55-59 2:07:21.0 12:44/M
821 Heidi Pequinot Folsom CA 748 54 F 37 50-54 2:07:46.0 12:47/M
822 Lisa Franklin Roseville CA 327 46 F 40 45-49 2:08:52.0 12:53/M
823 Mary Lomazzi Roseville CA 578 54 F 38 50-54 2:08:53.0 12:53/M
824 Dee Douglas Citrus Heights CA 282 41 F 58 40-44 2:09:09.0 12:55/M
825 Brandy Yeager San Rafael CA 1037 35 F 76 35-39 2:09:18.0 12:56/M
826 Christina Jay Sacramento CA 469 35 F 77 35-39 2:09:24.0 12:56/M
827 Hannah Fugle Paradise CA 335 23 F 16 20-24 2:09:57.0 13:00/M
828 Mallory Wilson Chico CA 1019 23 F 17 20-24 2:09:58.0 13:00/M
829 Mary Mohler Chico CA 659 26 F 63 25-29 2:09:58.0 13:00/M
830 Kegan Morrison Lodi CA 675 62 M 27 60-64 2:10:15.0 13:02/M
831 Shirley Clayton Sacramento CA 214 24 F 18 20-24 2:10:58.0 13:06/M
832 Yoshiteru Nishiyama Belmont CA 1265 37 M 48 35-39 2:11:09.0 13:07/M
833 Tehani Thompson Belmont CA 1263 29 F 64 25-29 2:11:09.0 13:07/M
834 Brittany Lang Sacramento CA 542 23 F 19 20-24 2:11:17.0 13:08/M
835 Heather West Sacramento CA 1006 31 F 67 30-34 2:11:25.0 13:09/M
836 Kate Gore Citrus Heights CA 370 37 F 78 35-39 2:12:18.0 13:14/M
837 Ryan Zilker Fullerton CA 1050 38 M 49 35-39 2:12:48.0 13:17/M
838 Alyson Dennis Roseville CA 264 33 F 68 30-34 2:12:50.0 13:17/M
839 Brittany Wood Roseville CA 1029 30 F 69 30-34 2:12:50.0 13:17/M
840 Carmen Igano Sacramento CA 460 43 M 77 40-44 2:12:58.0 13:18/M
841 Kelley Blackwell Roseville CA 1087 55 F 22 55-59 2:13:56.0 13:24/M
842 Rosalinda Royball Elk Grove CA 835 52 F 39 50-54 2:14:02.0 13:24/M
843 Stephanie Neuenschwander Roseville CA 693 32 F 70 30-34 2:14:32.0 13:27/M
844 Jennifer Hughes Lincoln CA 450 40 F 59 40-44 2:14:34.0 13:27/M
845 Misty Reinhardt Lincoln CA 800 37 F 79 35-39 2:14:34.0 13:27/M
846 Malissa Pardo Orangevale CA 732 34 F 71 30-34 2:14:56.0 13:30/M
847 Katrice Cain Fair Oaks CA 1121 51 F 40 50-54 2:15:08.0 13:31/M
848 Phil Phythian Mill Valley CA 758 80 M 2 80-99 2:15:20.0 13:32/M
849 Carolyn Goulding Auburn CA 372 56 F 23 55-59 2:15:24.0 13:32/M
850 Lori Weston West Sacramento CA 1008 41 F 60 40-44 2:15:38.0 13:34/M
851 Saleema Muhammad Sacramento CA 682 38 F 80 35-39 2:15:56.0 13:36/M
852 Karen Crick Granite Bay CA 243 68 F 4 65-69 2:16:17.0 13:38/M
853 Jennifer Crick Sacramento CA 242 46 F 41 45-49 2:16:17.0 13:38/M
854 Carmen Wong Richmond CA 1027 28 F 65 25-29 2:16:19.0 13:38/M
855 Bernie Martinez Redwood City CA 615 55 M 42 55-59 2:17:06.0 13:43/M
856 Gary Longoria Alameda CA 580 29 M 47 25-29 2:17:07.0 13:43/M
857 Cheryl Wafer Fair Oaks CA 993 71 F 4 70-74 2:17:13.0 13:43/M
858 Staci Slack Roseville CA 892 44 F 61 40-44 2:17:29.0 13:45/M
859 Darrel Bumgarner Aptos CA 1114 69 M 8 65-69 2:17:29.0 13:45/M
860 Robyn Christensen San Diego CA 1165 49 F 42 45-49 2:17:46.0 13:47/M
861 Chelsea Schmitt Granite Bay CA 866 23 F 20 20-24 2:18:07.0 13:49/M
862 Tuyen Servin North Highlands CA 873 29 F 66 25-29 2:18:22.0 13:50/M
863 Cua Vang Sacramento CA 986 27 F 67 25-29 2:18:25.0 13:51/M
864 Michael Arroyo North Highlands CA 82 24 M 9 20-24 2:18:25.0 13:51/M
865 Vicki Brown Sacramento CA 1109 47 F 43 45-49 2:18:27.0 13:51/M
866 Sophia Roccucci Elk Grove -- 816 44 F 62 40-44 2:18:28.0 13:51/M
867 Shanti Wright Lincoln CA 1032 21 F 21 20-24 2:18:54.0 13:53/M
868 Hilary Dibben Elk Grove CA 268 30 F 72 30-34 2:19:35.0 13:58/M
869 Lucy Camacho Sacramento CA 1127 37 F 81 35-39 2:19:36.0 13:58/M
870 Jagjeet Arce Sacramento CA 77 35 F 82 35-39 2:20:03.0 14:00/M
871 Kris Steele Rancho Cordova CA 919 28 M 48 25-29 2:20:06.0 14:01/M
872 Crista Corbett Roseville CA 233 40 F 63 40-44 2:20:47.0 14:05/M
873 David Hufford Redding CA 449 28 M 49 25-29 2:21:08.0 14:07/M
874 Samantha Green Napa CA 378 24 F 22 20-24 2:22:09.0 14:13/M
875 Corey Montoya Orangevale CA 667 33 F 73 30-34 2:22:09.0 14:13/M
876 Clay Quint Sacramento CA 780 48 M 50 45-49 2:22:32.0 14:15/M
877 Bea Qunt Sacramento CA 782 45 F 44 45-49 2:22:32.0 14:15/M
878 Jan Donough Rancho Cordova CA 279 64 F 17 60-64 2:22:33.0 14:15/M
879 Marcy Delavan Elk Grove CA 260 51 F 41 50-54 2:22:34.0 14:15/M
880 Jennifer Lange Orangevale CA 544 40 F 64 40-44 2:22:53.0 14:17/M
881 Ernie Moles Orangevale CA 660 64 M 28 60-64 2:22:53.0 14:17/M
882 Frank Schranz Valencia CA 869 65 M 9 65-69 2:23:19.0 14:20/M
883 Mandeep Bains Carmichael CA 91 42 F 65 40-44 2:25:23.0 14:32/M
884 Ryan Godfrey San Diego CA 360 42 M 78 40-44 2:26:41.0 14:40/M
885 Suzanne Montoya Sacramento CA 668 49 F 45 45-49 2:27:37.0 14:46/M
886 Sharon Navarrete Redwood City CA 1179 26 F 68 25-29 2:28:00.0 14:48/M
887 Lizette Tran Daly City CA 965 32 F 74 30-34 2:28:00.0 14:48/M
888 Rafael Gutierrez Daly City CA 384 37 M 50 35-39 2:28:00.0 14:48/M
889 Elise Schexnayder Sacramento CA 861 36 M 51 35-39 2:29:18.0 14:56/M
890 Shannon Payne Franktown CO 22 28 F 69 25-29 2:29:21.0 14:56/M
891 Alexa Donovan-Bowers Rancho Cordova CA 280 54 F 42 50-54 2:29:27.0 14:57/M
892 Edith Allen-Smith San Diego CA 61 55 F 24 55-59 2:29:53.0 14:59/M
893 Ashley Carroll San Francisco CA 30 31 F 75 30-34 2:30:24.0 15:02/M
894 Jennifer Reyes Carmichael CA 803 44 F 66 40-44 2:30:27.0 15:03/M
895 Trevor Bigot Davis CA 1081 48 M 51 45-49 2:31:16.0 15:08/M
896 Rebecca Mowry Sacramento -- 679 48 F 46 45-49 2:31:26.0 15:09/M
897 Leeana Neely Sacramento CA 689 37 F 83 35-39 2:31:27.0 15:09/M
898 Lisa Mowry Davis CA 678 46 F 47 45-49 2:31:28.0 15:09/M
899 Deborah Burnett Elverta CA 1117 57 F 25 55-59 2:31:58.0 15:12/M
900 Elizabeth Teague Antelope CA 949 41 F 67 40-44 2:33:12.0 15:19/M
 
Place Name City Bib No Age Gender Age Group Total Time Pace
901 Donielle Prince Sacramento CA 775 40 F 68 40-44 2:34:17.0 15:26/M
902 Susan Lyttge Folsom CA 598 42 F 69 40-44 2:35:13.0 15:31/M
903 Marnie Nessen Dixon CA 692 40 F 70 40-44 2:36:15.0 15:38/M
904 Nicoletta Nicoletti San Diego CA 697 41 F 71 40-44 2:36:17.0 15:38/M
905 Sandy Cerro Roseville CA 1150 57 F 26 55-59 2:38:00.0 15:48/M
906 Donna Perez Roseville CA 750 63 F 18 60-64 2:38:06.0 15:49/M
907 Michelle Kaspari Carmichael CA 499 43 F 72 40-44 2:38:40.0 15:52/M
908 Kathleen Behrendt San Jose CA 1064 59 F 27 55-59 2:38:41.0 15:52/M
909 Marty Behrendt San Jose CA 1065 51 M 61 50-54 2:38:41.0 15:52/M
910 Sheetal Datt Hayward CA 255 32 F 76 30-34 2:38:57.0 15:54/M
911 Sarah Swallow Sacramento CA 941 31 F 77 30-34 2:39:01.0 15:54/M
912 Valerie Truby Folsom CA 970 33 F 78 30-34 2:39:01.0 15:54/M
913 Denise Wildes Pittsburg CA 1013 47 F 48 45-49 2:40:08.0 16:01/M
914 Dina Kovash San Francisco CA 1243 75 F 1 75-79 2:40:20.0 16:02/M
915 Richard Lang Sacramento CA 543 26 M 50 25-29 2:41:25.0 16:09/M
916 Dominique Dimonde San Diego CA 271 25 F 70 25-29 2:41:59.0 16:12/M
917 Gloria Andrews Sacramento CA 70 61 F 19 60-64 2:44:34.0 16:27/M
918 Barbara Larochelle Sacramento CA 550 61 F 20 60-64 2:44:35.0 16:28/M
919 Brandon Suraj Hayward CA 938 17 M 7 1-19 2:58:53.0 17:53/M
920 Pieter Van Niekerk Rocklin CA 983 39 M 52 35-39 3:10:06.0 19:01/M